Rochester, Indiana
Current Conditions -  °F | °C
As of 11:55 PM on Wednesday 22 Oct 2014 (Local Time) from KRCR Reporting Station
Haze Haze  
Wind Chill: 39°   Ceiling: Unl
Heat Index: 39°   Visibility: 4mi
Dew Point: 39°   Wind: 3mph
Humidity: 100%   Direction: 110°ESE
Pressure: 30.29"   Gusts: NA
Location:  41.07°N, 86.21°W
Report Text: KRCR 230355Z AUTO 11003KT 4SM BR CLR 04/04 A3029 RMK AO2
Loading
Personal Weather Stations






























Interactive Weather Map
Tropical Storm Tracking
New forecast layout! Learn more

10-Day Weather Forecast

Advertisements
Track Severe Weather on mobile